Time;durP1;ratioP1;P1;durP2;ratioP2;P2;SDS_P1;SDS_P2;PMS_P1;PMS_P2;Temp;Humidity;BMP_temperature;BMP_pressure;BME280_temperature;BME280_humidity;BME280_pressure;Samples;Min_cycle;Max_cycle;Signal;HPM_P1;HPM_P2
2021/09/19 00:02:23;;;;;;;11.27;8.70;;;;;;;;;;10326744;28;20049;-65
2021/09/19 00:07:22;;;;;;;10.55;7.60;;;;;;;;;;10321573;28;20068;-65
2021/09/19 00:12:22;;;;;;;8.32;7.55;;;;;;;;;;10321007;28;20084;-64
2021/09/19 00:17:20;;;;;;;8.63;7.32;;;;;;;;;;10321067;28;20052;-64
2021/09/19 00:22:18;;;;;;;12.40;8.07;;;;;;;;;;10320834;28;20407;-65
2021/09/19 00:27:18;;;;;;;8.05;7.28;;;;;;;;;;10320644;28;20056;-65
2021/09/19 00:32:17;;;;;;;10.23;6.78;;;;;;;;;;10318696;28;20313;-65
2021/09/19 00:37:16;;;;;;;8.77;7.10;;;;;;;;;;10320146;28;20048;-65
2021/09/19 00:42:14;;;;;;;10.32;6.88;;;;;;;;;;10319961;28;20048;-64
2021/09/19 00:47:12;;;;;;;7.38;6.57;;;;;;;;;;10319677;28;20098;-65
2021/09/19 00:52:12;;;;;;;7.78;7.03;;;;;;;;;;10319116;28;20593;-65
2021/09/19 00:57:11;;;;;;;6.97;6.38;;;;;;;;;;10319462;28;20041;-64
2021/09/19 01:02:10;;;;;;;7.13;6.50;;;;;;;;;;10318998;28;20051;-64
2021/09/19 01:07:09;;;;;;;8.75;6.82;;;;;;;;;;10318019;28;20052;-65
2021/09/19 01:12:10;;;;;;;7.68;6.13;;;;;;;;;;10318695;28;20087;-64
2021/09/19 01:17:09;;;;;;;7.50;5.97;;;;;;;;;;10318567;28;20060;-65
2021/09/19 01:22:08;;;;;;;6.93;6.22;;;;;;;;;;10317433;28;20041;-64
2021/09/19 01:27:08;;;;;;;6.63;5.75;;;;;;;;;;10318155;28;20049;-64
2021/09/19 01:32:06;;;;;;;6.93;6.22;;;;;;;;;;10318193;28;20079;-64
2021/09/19 01:37:07;;;;;;;7.88;5.93;;;;;;;;;;10317862;28;20071;-64
2021/09/19 01:42:06;;;;;;;6.90;6.20;;;;;;;;;;10317544;28;20056;-64
2021/09/19 01:47:06;;;;;;;5.65;5.15;;;;;;;;;;10317585;28;20063;-64
2021/09/19 01:52:04;;;;;;;6.55;5.93;;;;;;;;;;10316727;28;20526;-64
2021/09/19 01:57:03;;;;;;;7.68;5.82;;;;;;;;;;10317244;28;20048;-64
2021/09/19 02:02:01;;;;;;;6.10;5.50;;;;;;;;;;10317289;28;20044;-64
2021/09/19 02:07:01;;;;;;;7.55;5.63;;;;;;;;;;10317262;28;20052;-64
2021/09/19 02:12:00;;;;;;;6.43;5.80;;;;;;;;;;10316683;28;20045;-64
2021/09/19 02:16:58;;;;;;;5.78;5.20;;;;;;;;;;10316568;28;20434;-64
2021/09/19 02:21:56;;;;;;;5.40;4.90;;;;;;;;;;10316930;28;20068;-64
2021/09/19 02:26:56;;;;;;;7.47;4.78;;;;;;;;;;10316630;28;20060;-64
2021/09/19 02:31:54;;;;;;;5.60;5.00;;;;;;;;;;10316664;28;20048;-64
2021/09/19 02:36:53;;;;;;;6.88;5.35;;;;;;;;;;10316530;28;20048;-64
2021/09/19 02:41:51;;;;;;;5.50;5.00;;;;;;;;;;10316389;28;20640;-64
2021/09/19 02:46:51;;;;;;;8.75;5.00;;;;;;;;;;10316501;28;20072;-64
2021/09/19 02:51:49;;;;;;;5.50;4.97;;;;;;;;;;10315673;28;20056;-64
2021/09/19 02:56:48;;;;;;;5.15;4.45;;;;;;;;;;10316105;28;20083;-65
2021/09/19 03:01:46;;;;;;;5.80;5.22;;;;;;;;;;10316147;28;20052;-64
2021/09/19 03:06:46;;;;;;;5.35;4.85;;;;;;;;;;10315813;28;20048;-64
2021/09/19 03:11:45;;;;;;;5.15;4.75;;;;;;;;;;10315677;28;20142;-66
2021/09/19 03:16:43;;;;;;;5.63;4.65;;;;;;;;;;10315793;28;20083;-65
2021/09/19 03:21:41;;;;;;;5.88;5.13;;;;;;;;;;10318712;28;20048;-65
2021/09/19 03:26:41;;;;;;;6.53;4.35;;;;;;;;;;10322076;28;20052;-65
2021/09/19 03:31:39;;;;;;;4.97;4.40;;;;;;;;;;10323097;28;20071;-65
2021/09/19 03:36:38;;;;;;;4.43;3.85;;;;;;;;;;10321369;28;20457;-65
2021/09/19 03:41:36;;;;;;;5.13;4.60;;;;;;;;;;10322197;28;20064;-64
2021/09/19 03:46:36;;;;;;;9.57;3.80;;;;;;;;;;10322123;28;20505;-65
2021/09/19 03:51:34;;;;;;;4.30;3.90;;;;;;;;;;10322134;28;20056;-64
2021/09/19 03:56:32;;;;;;;4.63;4.22;;;;;;;;;;10323962;28;20059;-65
2021/09/19 04:01:31;;;;;;;4.93;4.50;;;;;;;;;;10322253;28;20052;-65
2021/09/19 04:06:31;;;;;;;9.32;4.50;;;;;;;;;;10321275;28;20045;-64
2021/09/19 04:11:29;;;;;;;8.30;5.63;;;;;;;;;;10320350;28;20642;-65
2021/09/19 04:16:28;;;;;;;5.57;4.50;;;;;;;;;;10320881;28;20076;-65
2021/09/19 04:21:26;;;;;;;5.55;5.05;;;;;;;;;;10320782;28;20076;-65
2021/09/19 04:26:26;;;;;;;10.75;9.55;;;;;;;;;;10320722;28;20071;-64
2021/09/19 04:31:24;;;;;;;7.15;5.38;;;;;;;;;;10320359;28;20045;-65
2021/09/19 04:36:22;;;;;;;5.60;5.05;;;;;;;;;;10318124;28;20425;-65
2021/09/19 04:41:20;;;;;;;6.15;5.30;;;;;;;;;;10319399;28;20055;-65
2021/09/19 04:46:20;;;;;;;6.88;4.20;;;;;;;;;;10319744;28;20040;-64
2021/09/19 04:51:19;;;;;;;6.43;5.40;;;;;;;;;;10318992;28;20052;-64
2021/09/19 04:56:17;;;;;;;6.00;5.40;;;;;;;;;;10317514;28;20048;-64
2021/09/19 05:01:15;;;;;;;8.55;4.95;;;;;;;;;;10319072;28;20072;-64
2021/09/19 05:06:15;;;;;;;5.95;5.05;;;;;;;;;;10318783;28;20048;-64
2021/09/19 05:11:13;;;;;;;8.48;5.72;;;;;;;;;;10317730;28;20044;-65
2021/09/19 05:16:12;;;;;;;6.32;4.85;;;;;;;;;;10318171;28;20080;-65
2021/09/19 05:21:10;;;;;;;6.40;4.93;;;;;;;;;;10318329;28;20088;-64
2021/09/19 05:26:10;;;;;;;6.40;5.03;;;;;;;;;;10318215;28;20051;-65
2021/09/19 05:31:08;;;;;;;5.80;4.97;;;;;;;;;;10318091;28;20048;-64
2021/09/19 05:36:07;;;;;;;8.20;5.00;;;;;;;;;;10317361;28;20044;-64
2021/09/19 05:41:05;;;;;;;9.02;6.05;;;;;;;;;;10317148;28;20067;-64
2021/09/19 05:46:05;;;;;;;8.25;5.18;;;;;;;;;;10308261;28;20068;-65
2021/09/19 05:51:04;;;;;;;6.72;4.57;;;;;;;;;;10315992;28;20052;-65
2021/09/19 05:56:02;;;;;;;9.82;5.22;;;;;;;;;;10316609;28;20079;-63
2021/09/19 06:01:01;;;;;;;5.75;5.25;;;;;;;;;;10317025;28;20068;-65
2021/09/19 06:06:01;;;;;;;10.82;7.88;;;;;;;;;;10316040;28;20084;-64
2021/09/19 06:10:59;;;;;;;7.95;5.13;;;;;;;;;;10316800;28;20048;-64
2021/09/19 06:15:58;;;;;;;7.57;5.47;;;;;;;;;;10316606;28;20083;-65
2021/09/19 06:20:56;;;;;;;7.13;5.30;;;;;;;;;;10316126;28;20048;-65
2021/09/19 06:25:56;;;;;;;6.18;4.45;;;;;;;;;;10314780;28;20044;-66
2021/09/19 06:30:54;;;;;;;6.43;4.10;;;;;;;;;;10316431;28;20517;-64
2021/09/19 06:35:53;;;;;;;7.63;4.78;;;;;;;;;;10316210;28;20083;-63
2021/09/19 06:40:51;;;;;;;8.57;4.95;;;;;;;;;;10316176;28;20497;-63
2021/09/19 06:45:51;;;;;;;9.65;4.28;;;;;;;;;;10316279;28;20052;-64
2021/09/19 06:50:49;;;;;;;9.30;5.32;;;;;;;;;;10316214;28;20170;-64
2021/09/19 06:55:48;;;;;;;7.82;5.63;;;;;;;;;;10310922;28;20064;-63
2021/09/19 07:00:46;;;;;;;10.10;4.85;;;;;;;;;;10297060;28;20033;-64
2021/09/19 07:05:46;;;;;;;8.82;4.85;;;;;;;;;;10285384;28;20442;-64
2021/09/19 07:10:44;;;;;;;5.88;3.70;;;;;;;;;;10299557;28;20103;-64
2021/09/19 07:15:43;;;;;;;4.97;3.72;;;;;;;;;;10316312;28;20478;-64
2021/09/19 07:20:42;;;;;;;9.73;4.55;;;;;;;;;;10301065;28;20496;-64
2021/09/19 07:25:41;;;;;;;6.43;5.03;;;;;;;;;;10281955;28;20049;-64
2021/09/19 07:30:40;;;;;;;7.63;4.43;;;;;;;;;;10281828;28;20049;-64
2021/09/19 07:35:38;;;;;;;5.90;3.78;;;;;;;;;;10281525;28;20087;-65
2021/09/19 07:40:37;;;;;;;4.38;3.60;;;;;;;;;;10286705;28;20044;-64
2021/09/19 07:45:37;;;;;;;6.28;3.40;;;;;;;;;;10286683;28;20049;-65
2021/09/19 07:50:35;;;;;;;9.57;3.35;;;;;;;;;;10287996;28;20469;-65
2021/09/19 07:55:34;;;;;;;11.88;3.33;;;;;;;;;;10288460;28;20537;-65
2021/09/19 08:00:33;;;;;;;4.25;3.45;;;;;;;;;;10280734;28;20037;-65
2021/09/19 08:05:32;;;;;;;7.05;2.95;;;;;;;;;;10280186;28;20084;-65
2021/09/19 08:10:31;;;;;;;4.78;3.28;;;;;;;;;;10280313;28;20041;-65
2021/09/19 08:15:29;;;;;;;9.70;4.03;;;;;;;;;;10279362;28;20079;-64
2021/09/19 08:20:27;;;;;;;5.00;3.25;;;;;;;;;;10279317;28;20071;-64
2021/09/19 08:25:27;;;;;;;8.98;4.70;;;;;;;;;;10279523;28;20061;-64
2021/09/19 08:30:25;;;;;;;5.97;4.38;;;;;;;;;;10278141;28;20494;-65
2021/09/19 08:35:24;;;;;;;2.60;2.40;;;;;;;;;;10276040;28;20458;-64
2021/09/19 08:40:22;;;;;;;5.18;2.60;;;;;;;;;;10277267;28;20056;-64
2021/09/19 08:45:23;;;;;;;6.82;3.70;;;;;;;;;;10276022;28;20055;-64
2021/09/19 08:50:21;;;;;;;5.47;3.72;;;;;;;;;;10274192;28;20080;-64
2021/09/19 08:55:20;;;;;;;2.70;1.95;;;;;;;;;;10274515;28;20084;-64
2021/09/19 09:00:18;;;;;;;5.90;3.40;;;;;;;;;;10275709;28;20069;-64
2021/09/19 09:05:22;;;;;;;3.55;3.00;;;;;;;;;;10277735;28;20056;-65
2021/09/19 09:10:34;;;;;;;4.20;3.75;;;;;;;;;;10278028;28;20068;-64
2021/09/19 09:15:34;;;;;;;5.32;2.70;;;;;;;;;;10277649;28;20088;-64
2021/09/19 09:20:50;;;;;;;4.70;3.08;;;;;;;;;;10277410;28;20068;-64
2021/09/19 09:26:07;;;;;;;4.78;2.72;;;;;;;;;;10276591;28;20084;-64
2021/09/19 09:31:06;;;;;;;6.15;2.60;;;;;;;;;;10277020;28;20037;-64
2021/09/19 09:36:08;;;;;;;4.85;2.35;;;;;;;;;;10276684;28;20510;-65
2021/09/19 09:41:08;;;;;;;3.20;2.42;;;;;;;;;;10311281;28;20080;-64
2021/09/19 09:46:10;;;;;;;4.63;2.72;;;;;;;;;;10277154;28;20069;-65
2021/09/19 09:51:34;;;;;;;6.80;3.90;;;;;;;;;;10275317;28;20088;-65
2021/09/19 09:56:35;;;;;;;7.30;2.47;;;;;;;;;;10280120;28;20130;-64
2021/09/19 10:01:35;;;;;;;2.47;2.28;;;;;;;;;;10279923;28;20079;-65
2021/09/19 10:06:33;;;;;;;4.13;2.88;;;;;;;;;;10273836;28;20044;-65
2021/09/19 10:11:32;;;;;;;5.28;2.60;;;;;;;;;;10274839;28;20410;-65
2021/09/19 10:16:32;;;;;;;5.57;2.33;;;;;;;;;;10273855;28;20083;-65
2021/09/19 10:21:31;;;;;;;4.45;3.80;;;;;;;;;;10287060;28;20045;-64
2021/09/19 10:26:30;;;;;;;4.05;2.90;;;;;;;;;;10274576;28;20521;-63
2021/09/19 10:31:33;;;;;;;3.45;3.15;;;;;;;;;;10275236;28;20431;-64
2021/09/19 10:36:40;;;;;;;3.08;2.78;;;;;;;;;;10276102;28;20076;-64
2021/09/19 10:41:58;;;;;;;5.82;3.13;;;;;;;;;;10283119;28;20056;-64
2021/09/19 10:47:03;;;;;;;4.78;4.10;;;;;;;;;;10281552;28;20084;-64
2021/09/19 10:52:09;;;;;;;7.97;6.03;;;;;;;;;;10282739;28;20411;-63
2021/09/19 10:57:13;;;;;;;8.73;4.05;;;;;;;;;;10280612;28;20092;-63
2021/09/19 11:02:26;;;;;;;8.82;3.53;;;;;;;;;;10281568;28;20060;-64
2021/09/19 11:07:26;;;;;;;5.07;4.28;;;;;;;;;;10281297;28;20073;-64
2021/09/19 11:12:40;;;;;;;8.32;5.47;;;;;;;;;;10284053;28;20425;-64
2021/09/19 11:17:44;;;;;;;8.60;5.50;;;;;;;;;;10280207;28;20514;-63
2021/09/19 11:22:44;;;;;;;24.40;20.80;;;;;;;;;;10280553;28;20103;-63
2021/09/19 11:27:43;;;;;;;7.18;4.70;;;;;;;;;;10280150;28;20048;-63
2021/09/19 11:32:41;;;;;;;8.88;5.05;;;;;;;;;;10279960;28;20510;-65
2021/09/19 11:37:41;;;;;;;7.88;3.78;;;;;;;;;;10279430;28;20072;-63
2021/09/19 11:42:39;;;;;;;6.43;4.45;;;;;;;;;;10286763;28;20041;-64
2021/09/19 11:47:39;;;;;;;8.32;6.00;;;;;;;;;;10294759;28;20417;-65
2021/09/19 11:52:38;;;;;;;5.80;4.93;;;;;;;;;;10304295;28;20088;-65
2021/09/19 11:57:37;;;;;;;12.27;10.93;;;;;;;;;;10311969;28;20103;-65
2021/09/19 12:02:39;;;;;;;8.35;6.32;;;;;;;;;;10313833;28;20087;-65
2021/09/19 12:07:38;;;;;;;9.68;4.53;;;;;;;;;;10317852;28;20422;-65
2021/09/19 12:12:38;;;;;;;6.25;3.53;;;;;;;;;;10317878;28;20060;-65
2021/09/19 12:17:38;;;;;;;6.30;4.72;;;;;;;;;;10316508;28;20482;-64
2021/09/19 12:22:37;;;;;;;7.82;3.60;;;;;;;;;;10317553;28;20083;-65
2021/09/19 12:27:42;;;;;;;4.88;3.90;;;;;;;;;;10319833;28;20068;-64
2021/09/19 12:32:43;;;;;;;5.55;4.25;;;;;;;;;;10316616;28;20083;-66
2021/09/19 12:37:43;;;;;;;5.95;4.82;;;;;;;;;;10316805;28;20082;-65
2021/09/19 12:42:41;;;;;;;6.80;4.70;;;;;;;;;;10315173;28;20096;-65
2021/09/19 12:47:41;;;;;;;8.50;5.03;;;;;;;;;;10318421;28;20049;-64
2021/09/19 12:52:46;;;;;;;6.60;4.80;;;;;;;;;;10318606;28;20048;-64
2021/09/19 12:57:44;;;;;;;6.95;5.03;;;;;;;;;;10318040;28;20076;-64
2021/09/19 13:02:53;;;;;;;8.88;4.90;;;;;;;;;;10318070;28;20049;-64
2021/09/19 13:07:53;;;;;;;4.85;4.25;;;;;;;;;;10317149;28;20044;-65
2021/09/19 13:12:51;;;;;;;5.28;3.58;;;;;;;;;;10317835;28;20448;-64
2021/09/19 13:17:50;;;;;;;5.38;3.92;;;;;;;;;;10317545;28;20075;-63
2021/09/19 13:22:49;;;;;;;6.43;3.40;;;;;;;;;;10317673;28;20445;-64
2021/09/19 13:27:49;;;;;;;14.00;4.18;;;;;;;;;;10317425;28;20075;-64
2021/09/19 13:32:47;;;;;;;10.35;3.63;;;;;;;;;;10316823;28;20045;-65
2021/09/19 13:37:46;;;;;;;10.90;7.15;;;;;;;;;;10316973;28;20091;-65
2021/09/19 13:42:44;;;;;;;5.75;3.33;;;;;;;;;;10317602;28;20445;-65
2021/09/19 13:47:44;;;;;;;6.88;3.90;;;;;;;;;;10317140;28;20493;-64
2021/09/19 13:52:42;;;;;;;7.07;3.45;;;;;;;;;;10315768;28;20056;-63
2021/09/19 13:57:40;;;;;;;10.02;6.10;;;;;;;;;;10316181;28;20084;-64
2021/09/19 14:02:39;;;;;;;10.77;7.63;;;;;;;;;;10315160;28;20044;-64
2021/09/19 14:07:39;;;;;;;7.15;6.30;;;;;;;;;;10314914;28;20095;-63
2021/09/19 14:12:38;;;;;;;7.78;3.70;;;;;;;;;;10315680;28;20079;-63
2021/09/19 14:17:37;;;;;;;3.38;2.75;;;;;;;;;;10316443;28;20087;-62
2021/09/19 14:22:37;;;;;;;5.03;2.78;;;;;;;;;;10292701;28;20071;-61
2021/09/19 14:27:37;;;;;;;4.50;2.53;;;;;;;;;;10289839;28;20079;-62
2021/09/19 14:32:36;;;;;;;50.80;7.63;;;;;;;;;;10273046;28;20529;-63
2021/09/19 14:37:35;;;;;;;4.80;3.42;;;;;;;;;;10272476;28;20080;-63
2021/09/19 14:42:34;;;;;;;3.22;2.92;;;;;;;;;;10274668;28;20088;-63
2021/09/19 14:47:34;;;;;;;5.22;4.05;;;;;;;;;;10271911;28;20103;-63
2021/09/19 14:52:33;;;;;;;190.43;144.85;;;;;;;;;;10282344;28;20107;-63
2021/09/19 14:57:32;;;;;;;13.10;8.25;;;;;;;;;;10273680;28;20072;-63
2021/09/19 15:02:46;;;;;;;18.02;13.25;;;;;;;;;;10290279;28;20534;-63
2021/09/19 15:07:44;;;;;;;57.25;51.60;;;;;;;;;;10288566;28;20071;-62
2021/09/19 15:12:43;;;;;;;9.70;8.57;;;;;;;;;;10288150;28;20064;-64
2021/09/19 15:17:41;;;;;;;23.35;20.80;;;;;;;;;;10271160;28;20069;-63
2021/09/19 15:22:41;;;;;;;29.60;23.10;;;;;;;;;;10281792;28;20075;-63
2021/09/19 15:27:40;;;;;;;19.20;17.13;;;;;;;;;;10278613;28;20079;-63
2021/09/19 15:32:39;;;;;;;41.00;35.58;;;;;;;;;;10279251;28;20065;-63
2021/09/19 15:37:38;;;;;;;8.70;7.45;;;;;;;;;;10278954;28;20096;-62
2021/09/19 15:42:38;;;;;;;10.40;8.75;;;;;;;;;;10276662;28;20076;-63
2021/09/19 15:47:38;;;;;;;18.98;16.92;;;;;;;;;;10275386;28;20081;-63
2021/09/19 15:52:37;;;;;;;13.13;6.97;;;;;;;;;;10284229;28;20556;-63
2021/09/19 15:57:36;;;;;;;11.63;7.70;;;;;;;;;;10293111;28;20093;-63
2021/09/19 16:02:36;;;;;;;6.90;5.55;;;;;;;;;;10310481;28;20072;-63
2021/09/19 16:07:35;;;;;;;6.82;4.65;;;;;;;;;;10310483;28;20060;-63
2021/09/19 16:12:34;;;;;;;7.85;7.05;;;;;;;;;;10295169;28;20088;-63
2021/09/19 16:17:33;;;;;;;8.15;6.63;;;;;;;;;;10279791;28;20084;-63
2021/09/19 16:22:32;;;;;;;12.35;6.72;;;;;;;;;;10279938;28;20227;-62
2021/09/19 16:27:31;;;;;;;8.57;5.38;;;;;;;;;;10278745;28;20049;-63
2021/09/19 16:32:30;;;;;;;8.90;5.78;;;;;;;;;;10277142;28;20106;-63
2021/09/19 16:37:28;;;;;;;9.18;6.97;;;;;;;;;;10276230;28;20076;-62
2021/09/19 16:42:28;;;;;;;9.52;7.47;;;;;;;;;;10277802;28;20095;-63
2021/09/19 16:47:26;;;;;;;7.00;5.25;;;;;;;;;;10277441;28;20087;-62
2021/09/19 16:52:25;;;;;;;8.93;3.67;;;;;;;;;;10282337;28;20089;-63
2021/09/19 16:57:23;;;;;;;5.55;4.43;;;;;;;;;;10300993;28;20470;-63
2021/09/19 17:02:23;;;;;;;6.80;5.05;;;;;;;;;;10288994;28;20072;-63
2021/09/19 17:07:21;;;;;;;13.55;6.53;;;;;;;;;;10304452;28;20520;-63
2021/09/19 17:12:20;;;;;;;13.20;6.85;;;;;;;;;;10297938;28;20075;-62
2021/09/19 17:17:18;;;;;;;11.05;5.20;;;;;;;;;;10299742;28;20092;-64
2021/09/19 17:22:18;;;;;;;7.97;5.95;;;;;;;;;;10295553;28;20060;-62
2021/09/19 17:27:17;;;;;;;9.07;4.15;;;;;;;;;;10303261;28;20076;-63
2021/09/19 17:32:16;;;;;;;9.38;5.22;;;;;;;;;;10313725;28;20140;-63
2021/09/19 17:37:14;;;;;;;8.90;6.70;;;;;;;;;;10299846;28;20079;-63
2021/09/19 17:42:15;;;;;;;14.05;11.57;;;;;;;;;;10300233;28;20065;-63
2021/09/19 17:47:14;;;;;;;13.15;10.00;;;;;;;;;;10275487;28;20091;-62
2021/09/19 17:52:12;;;;;;;13.95;11.65;;;;;;;;;;10275632;28;20545;-63
2021/09/19 17:57:10;;;;;;;14.43;10.18;;;;;;;;;;10282863;28;20079;-63
2021/09/19 18:02:10;;;;;;;9.70;8.43;;;;;;;;;;10289552;28;20083;-63
2021/09/19 18:07:09;;;;;;;11.57;8.10;;;;;;;;;;10294524;28;20052;-63
2021/09/19 18:12:09;;;;;;;12.93;9.32;;;;;;;;;;10288626;28;20072;-63
2021/09/19 18:17:07;;;;;;;10.82;9.70;;;;;;;;;;10291411;28;20087;-62
2021/09/19 18:22:07;;;;;;;15.52;12.02;;;;;;;;;;10284587;28;20070;-63
2021/09/19 18:27:05;;;;;;;19.60;15.48;;;;;;;;;;10298823;28;20072;-62
2021/09/19 18:32:04;;;;;;;23.92;14.07;;;;;;;;;;10295429;28;20063;-62
2021/09/19 18:37:03;;;;;;;12.43;10.13;;;;;;;;;;10282841;28;20084;-65
2021/09/19 18:42:02;;;;;;;14.35;10.93;;;;;;;;;;10307276;28;20079;-63
2021/09/19 18:47:01;;;;;;;17.98;12.38;;;;;;;;;;10287106;28;20098;-62
2021/09/19 18:51:59;;;;;;;16.33;13.23;;;;;;;;;;10284732;28;20092;-62
2021/09/19 18:56:58;;;;;;;19.33;17.27;;;;;;;;;;10290421;28;20071;-62
2021/09/19 19:01:58;;;;;;;19.88;17.23;;;;;;;;;;10299528;28;20088;-62
2021/09/19 19:06:57;;;;;;;22.42;13.77;;;;;;;;;;10293406;28;20524;-62
2021/09/19 19:11:55;;;;;;;14.40;9.73;;;;;;;;;;10292993;28;20083;-62
2021/09/19 19:16:54;;;;;;;10.38;8.20;;;;;;;;;;10291588;28;20064;-61
2021/09/19 19:21:53;;;;;;;12.00;8.73;;;;;;;;;;10298476;28;20060;-61
2021/09/19 19:26:52;;;;;;;15.13;8.40;;;;;;;;;;10296609;28;20064;-62
2021/09/19 19:31:50;;;;;;;18.30;9.40;;;;;;;;;;10294151;28;20322;-62
2021/09/19 19:36:48;;;;;;;8.98;8.07;;;;;;;;;;10279735;28;20076;-61
2021/09/19 19:41:48;;;;;;;10.52;8.02;;;;;;;;;;10281724;28;20073;-62
2021/09/19 19:46:46;;;;;;;13.90;10.00;;;;;;;;;;10281703;28;20052;-61
2021/09/19 19:51:45;;;;;;;10.55;9.30;;;;;;;;;;10280845;28;20080;-62
2021/09/19 19:56:43;;;;;;;12.27;8.25;;;;;;;;;;10280864;28;20045;-61
2021/09/19 20:01:43;;;;;;;16.60;10.63;;;;;;;;;;10280854;28;20455;-62
2021/09/19 20:06:41;;;;;;;17.90;11.50;;;;;;;;;;10280750;28;20056;-63
2021/09/19 20:11:40;;;;;;;14.07;10.07;;;;;;;;;;10279544;28;20056;-61
2021/09/19 20:16:38;;;;;;;13.38;9.20;;;;;;;;;;10280539;28;20414;-61
2021/09/19 20:21:38;;;;;;;9.27;7.75;;;;;;;;;;10279301;28;20083;-61
2021/09/19 20:26:36;;;;;;;9.27;7.68;;;;;;;;;;10279988;28;20045;-61
2021/09/19 20:31:34;;;;;;;8.50;7.40;;;;;;;;;;10279030;28;20454;-61
2021/09/19 20:36:33;;;;;;;10.52;9.23;;;;;;;;;;10279791;28;20064;-62
2021/09/19 20:41:32;;;;;;;13.75;9.95;;;;;;;;;;10279383;28;20463;-62
2021/09/19 20:46:31;;;;;;;10.30;9.13;;;;;;;;;;10279477;28;20091;-61
2021/09/19 20:51:30;;;;;;;12.63;8.90;;;;;;;;;;10278592;28;20063;-61
2021/09/19 20:56:28;;;;;;;14.65;9.35;;;;;;;;;;10277998;28;20045;-61
2021/09/19 21:01:29;;;;;;;14.32;9.60;;;;;;;;;;10277779;28;20083;-63
2021/09/19 21:06:28;;;;;;;9.52;7.57;;;;;;;;;;10279093;28;20049;-62
2021/09/19 21:11:26;;;;;;;10.05;7.22;;;;;;;;;;10278536;28;20037;-62
2021/09/19 21:16:25;;;;;;;11.90;8.77;;;;;;;;;;10278137;28;20513;-62
2021/09/19 21:21:24;;;;;;;12.45;7.93;;;;;;;;;;10277686;28;20451;-62
2021/09/19 21:26:23;;;;;;;11.02;6.75;;;;;;;;;;10277706;28;20067;-62
2021/09/19 21:31:21;;;;;;;7.95;6.15;;;;;;;;;;10277350;28;20102;-62
2021/09/19 21:36:19;;;;;;;8.65;6.15;;;;;;;;;;10277462;28;20052;-62
2021/09/19 21:41:19;;;;;;;9.70;6.45;;;;;;;;;;10277133;28;20088;-62
2021/09/19 21:46:18;;;;;;;7.70;6.53;;;;;;;;;;10276994;28;20052;-62
2021/09/19 21:51:16;;;;;;;11.98;7.75;;;;;;;;;;10276438;28;20052;-62
2021/09/19 21:56:15;;;;;;;12.25;7.47;;;;;;;;;;10276756;28;20053;-62
2021/09/19 22:01:14;;;;;;;10.45;7.35;;;;;;;;;;10276490;28;20506;-62
2021/09/19 22:06:13;;;;;;;8.93;7.03;;;;;;;;;;10276485;28;20072;-62
2021/09/19 22:11:18;;;;;;;7.28;6.53;;;;;;;;;;10276437;28;20044;-62
2021/09/19 22:16:18;;;;;;;9.05;5.50;;;;;;;;;;10276477;28;20052;-61
2021/09/19 22:21:16;;;;;;;11.90;5.43;;;;;;;;;;10276165;28;20071;-62
2021/09/19 22:26:15;;;;;;;5.78;5.18;;;;;;;;;;10276290;28;20533;-62
2021/09/19 22:31:19;;;;;;;6.20;5.60;;;;;;;;;;10303756;28;20064;-62
2021/09/19 22:36:18;;;;;;;7.65;5.35;;;;;;;;;;10324155;28;20055;-61
2021/09/19 22:41:16;;;;;;;7.90;5.35;;;;;;;;;;10323900;28;20076;-62
2021/09/19 22:46:15;;;;;;;9.13;5.53;;;;;;;;;;10322616;28;20044;-62
2021/09/19 22:51:16;;;;;;;8.35;5.57;;;;;;;;;;10324034;28;20053;-62
2021/09/19 22:56:15;;;;;;;7.85;5.90;;;;;;;;;;10324179;28;20047;-62
2021/09/19 23:01:13;;;;;;;6.72;5.82;;;;;;;;;;10323287;28;20080;-63
2021/09/19 23:06:12;;;;;;;6.00;5.40;;;;;;;;;;10324110;28;20086;-62
2021/09/19 23:11:11;;;;;;;8.57;7.65;;;;;;;;;;10324328;28;20041;-62
2021/09/19 23:16:10;;;;;;;9.27;7.63;;;;;;;;;;10323673;28;20048;-62
2021/09/19 23:21:09;;;;;;;7.20;6.35;;;;;;;;;;10323210;28;20083;-62
2021/09/19 23:26:07;;;;;;;7.75;6.25;;;;;;;;;;10322321;28;20524;-62
2021/09/19 23:31:07;;;;;;;12.85;6.07;;;;;;;;;;10322539;28;20048;-62
2021/09/19 23:36:05;;;;;;;7.82;5.50;;;;;;;;;;10322678;28;20045;-62
2021/09/19 23:41:03;;;;;;;6.30;5.28;;;;;;;;;;10322501;28;20080;-62
2021/09/19 23:46:02;;;;;;;9.30;6.10;;;;;;;;;;10322266;28;20071;-63
2021/09/19 23:51:02;;;;;;;7.78;6.15;;;;;;;;;;10321586;28;20084;-61
2021/09/19 23:56:00;;;;;;;8.35;6.22;;;;;;;;;;10321935;28;20045;-61
